createdAt,value
2022-09-12T00:01:42.902Z,15.80
2022-09-12T00:05:25.902Z,15.80
2022-09-12T00:09:11.813Z,15.80
2022-09-12T00:12:53.545Z,15.80
2022-09-12T00:16:36.750Z,15.80
2022-09-12T00:20:18.605Z,15.80
2022-09-12T00:24:00.854Z,15.70
2022-09-12T00:27:42.571Z,15.80
2022-09-12T00:31:25.917Z,15.80
2022-09-12T00:35:07.896Z,15.80
2022-09-12T00:38:51.179Z,15.80
2022-09-12T00:42:32.860Z,15.80
2022-09-12T00:46:47.401Z,15.80
2022-09-12T00:50:31.839Z,15.80
2022-09-12T00:54:19.403Z,15.80
2022-09-12T00:58:19.689Z,15.80
2022-09-12T01:02:01.766Z,15.70
2022-09-12T01:05:52.223Z,15.70
2022-09-12T01:09:34.574Z,15.70
2022-09-12T01:13:16.488Z,15.60
2022-09-12T01:16:58.814Z,15.60
2022-09-12T01:21:09.209Z,15.60
2022-09-12T01:25:03.210Z,15.60
2022-09-12T01:28:50.909Z,15.60
2022-09-12T01:32:53.344Z,15.60
2022-09-12T01:37:23.581Z,15.60
2022-09-12T01:41:39.076Z,15.60
2022-09-12T01:45:23.944Z,15.70
2022-09-12T01:49:25.112Z,15.70
2022-09-12T01:53:25.836Z,15.70
2022-09-12T01:57:16.705Z,15.70
2022-09-12T02:01:20.728Z,15.70
2022-09-12T02:05:14.842Z,15.70
2022-09-12T02:09:05.009Z,15.70
2022-09-12T02:12:52.554Z,15.70
2022-09-12T02:16:46.172Z,15.70
2022-09-12T02:20:47.542Z,15.70
2022-09-12T02:24:36.615Z,15.70
2022-09-12T02:28:31.918Z,15.70
2022-09-12T02:32:34.272Z,15.70
2022-09-12T02:36:34.459Z,15.70
2022-09-12T02:40:16.503Z,15.70
2022-09-12T02:43:58.297Z,15.80
2022-09-12T02:47:49.030Z,15.80
2022-09-12T02:51:31.028Z,15.90
2022-09-12T02:55:14.840Z,16.00
2022-09-12T02:59:02.441Z,16.00
2022-09-12T03:03:07.225Z,16.10
2022-09-12T03:07:00.925Z,16.10
2022-09-12T03:11:07.874Z,16.10
2022-09-12T03:14:54.435Z,16.20
2022-09-12T03:18:57.717Z,16.30
2022-09-12T03:23:08.172Z,16.30
2022-09-12T03:27:14.359Z,16.40
2022-09-12T03:30:56.603Z,16.40
2022-09-12T03:34:39.058Z,16.50
2022-09-12T03:38:20.881Z,16.60
2022-09-12T03:42:02.593Z,16.60
2022-09-12T03:45:44.366Z,16.60
2022-09-12T03:49:26.067Z,16.60
2022-09-12T03:53:07.801Z,16.60
2022-09-12T03:56:49.473Z,16.60
2022-09-12T04:00:31.182Z,16.70
2022-09-12T04:04:12.914Z,16.70
2022-09-12T04:07:54.628Z,16.70
2022-09-12T04:11:36.644Z,16.70
2022-09-12T04:15:18.637Z,16.70
2022-09-12T04:19:00.405Z,16.70
2022-09-12T04:22:42.133Z,16.70
2022-09-12T04:26:23.915Z,16.70
2022-09-12T04:30:06.403Z,16.70
2022-09-12T04:33:52.886Z,16.80
2022-09-12T04:37:34.906Z,16.80
2022-09-12T04:41:18.359Z,16.80
2022-09-12T04:45:00.048Z,16.80
2022-09-12T04:48:42.587Z,16.70
2022-09-12T04:52:24.385Z,16.70
2022-09-12T04:56:08.927Z,16.70
2022-09-12T04:59:50.690Z,16.70
2022-09-12T05:03:33.127Z,16.70
2022-09-12T05:07:14.884Z,16.70
2022-09-12T05:10:57.199Z,16.60
2022-09-12T05:14:38.989Z,16.70
2022-09-12T05:18:21.322Z,16.60
2022-09-12T05:22:04.936Z,16.60
2022-09-12T05:25:53.374Z,16.50
2022-09-12T05:29:35.928Z,16.50
2022-09-12T05:33:20.926Z,16.40
2022-09-12T05:37:04.936Z,16.30
2022-09-12T05:40:46.667Z,16.20
2022-09-12T05:44:28.546Z,16.10
2022-09-12T05:48:10.306Z,16.00
2022-09-12T05:51:52.039Z,16.00
2022-09-12T05:55:34.186Z,15.90
2022-09-12T05:59:20.952Z,16.00
2022-09-12T06:03:02.797Z,16.00
2022-09-12T06:06:45.716Z,16.00
2022-09-12T06:10:28.116Z,16.10
2022-09-12T06:14:12.168Z,16.10
2022-09-12T06:17:54.510Z,16.30
2022-09-12T06:21:37.815Z,16.40
2022-09-12T06:25:20.078Z,16.50
2022-09-12T06:29:02.971Z,16.60
2022-09-12T06:32:44.828Z,16.80
2022-09-12T06:36:28.898Z,16.90
2022-09-12T06:40:11.232Z,17.00
2022-09-12T06:43:53.909Z,17.10
2022-09-12T06:47:39.453Z,17.20
2022-09-12T06:51:24.411Z,17.30
2022-09-12T06:55:10.621Z,17.50
2022-09-12T06:58:58.884Z,17.60
2022-09-12T07:02:40.667Z,17.70
2022-09-12T07:06:29.795Z,17.70
2022-09-12T07:10:12.484Z,17.80
2022-09-12T07:13:56.554Z,17.90
2022-09-12T07:17:38.238Z,17.90
2022-09-12T07:21:20.127Z,17.90
2022-09-12T07:25:03.042Z,18.00
2022-09-12T07:28:45.194Z,18.10
2022-09-12T07:32:27.411Z,18.10
2022-09-12T07:36:12.690Z,18.20
2022-09-12T07:39:54.510Z,18.20
2022-09-12T07:43:36.213Z,18.30
2022-09-12T07:47:18.125Z,18.40
2022-09-12T07:51:05.197Z,18.60
2022-09-12T07:54:47.097Z,18.70
2022-09-12T07:58:30.392Z,18.90
2022-09-12T08:02:17.457Z,19.10
2022-09-12T08:06:07.041Z,19.30
2022-09-12T08:09:48.835Z,19.40
2022-09-12T08:13:30.741Z,19.60
2022-09-12T08:17:12.644Z,19.70
2022-09-12T08:21:02.121Z,19.80
2022-09-12T08:24:44.068Z,19.90
2022-09-12T08:28:26.254Z,20.10
2022-09-12T08:32:08.196Z,20.30
2022-09-12T08:35:49.895Z,20.50
2022-09-12T08:39:32.677Z,20.80
2022-09-12T08:43:51.026Z,21.10
2022-09-12T08:47:39.830Z,21.20
2022-09-12T08:51:22.023Z,21.40
2022-09-12T08:55:06.656Z,21.70
2022-09-12T08:58:48.870Z,21.80
2022-09-12T09:02:42.508Z,22.10
2022-09-12T09:06:46.634Z,22.20
2022-09-12T09:10:35.542Z,22.50
2022-09-12T09:14:48.164Z,22.60
2022-09-12T09:18:32.850Z,22.80
2022-09-12T09:22:32.474Z,23.30
2022-09-12T09:26:14.711Z,24.20
2022-09-12T09:29:56.913Z,24.90
2022-09-12T09:33:38.792Z,25.40
2022-09-12T09:37:30.079Z,25.90
2022-09-12T09:41:30.313Z,26.70
2022-09-12T09:45:16.321Z,27.30
2022-09-12T09:48:59.434Z,28.00
2022-09-12T09:52:41.555Z,28.40
2022-09-12T09:56:49.846Z,29.10
2022-09-12T10:00:31.794Z,30.20
2022-09-12T10:04:27.926Z,31.40
2022-09-12T10:08:10.357Z,32.50
2022-09-12T10:11:53.345Z,33.40
2022-09-12T10:15:35.245Z,33.80
2022-09-12T10:19:45.555Z,34.20
2022-09-12T10:23:41.096Z,34.50
2022-09-12T10:27:32.390Z,34.80
2022-09-12T10:31:17.282Z,35.00
2022-09-12T10:35:15.456Z,35.30
2022-09-12T10:39:00.992Z,35.70
2022-09-12T10:42:51.421Z,36.00
2022-09-12T10:46:33.126Z,36.20
2022-09-12T10:50:36.554Z,36.30
2022-09-12T10:54:21.263Z,35.90
2022-09-12T10:58:34.244Z,35.60
2022-09-12T11:03:02.657Z,35.80
2022-09-12T11:07:21.729Z,36.10
2022-09-12T11:11:14.352Z,36.60
2022-09-12T11:15:14.965Z,36.90
2022-09-12T11:19:11.201Z,36.80
2022-09-12T11:23:31.709Z,36.60
2022-09-12T11:27:38.285Z,36.90
2022-09-12T11:31:47.004Z,37.00
2022-09-12T11:35:30.382Z,36.80
2022-09-12T11:39:23.846Z,36.00
2022-09-12T11:43:30.189Z,35.10
2022-09-12T11:47:15.041Z,34.40
2022-09-12T11:50:58.184Z,33.90
2022-09-12T11:54:51.472Z,33.50
2022-09-12T11:58:37.325Z,33.20
2022-09-12T12:02:48.076Z,33.30
2022-09-12T12:06:47.052Z,33.00
2022-09-12T12:10:37.317Z,32.30
2022-09-12T12:14:26.930Z,31.40
2022-09-12T12:18:17.936Z,30.30
2022-09-12T12:22:08.109Z,29.40
2022-09-12T12:25:58.678Z,28.70
2022-09-12T12:29:43.801Z,28.10
2022-09-12T12:33:26.403Z,27.60
2022-09-12T12:37:22.561Z,27.30
2022-09-12T12:41:19.524Z,27.20
2022-09-12T12:45:08.333Z,27.50
2022-09-12T12:49:09.476Z,27.70
2022-09-12T12:53:19.122Z,27.90
2022-09-12T12:57:15.131Z,28.00
2022-09-12T13:01:21.424Z,28.30
2022-09-12T13:05:07.916Z,28.70
2022-09-12T13:09:00.211Z,28.70
2022-09-12T13:12:47.761Z,28.30
2022-09-12T13:16:38.700Z,28.00
2022-09-12T13:20:28.627Z,28.00
2022-09-12T13:24:16.156Z,27.90
2022-09-12T13:28:16.713Z,27.90
2022-09-12T13:32:01.230Z,28.10
2022-09-12T13:35:58.269Z,28.20
2022-09-12T13:39:50.096Z,28.20
2022-09-12T13:43:43.501Z,28.10
2022-09-12T13:47:35.721Z,28.00
2022-09-12T13:51:30.378Z,27.90
2022-09-12T13:55:32.236Z,27.90
2022-09-12T13:59:13.941Z,27.90
2022-09-12T14:03:15.639Z,28.00
2022-09-12T14:06:57.884Z,28.10
2022-09-12T14:10:41.989Z,28.20
2022-09-12T14:14:32.610Z,28.30
2022-09-12T14:18:34.254Z,28.40
2022-09-12T14:22:18.746Z,28.50
2022-09-12T14:26:06.569Z,28.60
2022-09-12T14:29:48.446Z,28.70
2022-09-12T14:33:33.677Z,28.70
2022-09-12T14:37:15.374Z,29.00
2022-09-12T14:41:07.519Z,29.80
2022-09-12T14:45:06.331Z,30.50
2022-09-12T14:48:52.983Z,31.10
2022-09-12T14:52:35.173Z,31.20
2022-09-12T14:56:20.222Z,31.10
2022-09-12T15:00:14.684Z,30.80
2022-09-12T15:03:56.860Z,30.40
2022-09-12T15:07:55.789Z,29.90
2022-09-12T15:11:38.401Z,29.50
2022-09-12T15:15:21.165Z,29.20
2022-09-12T15:19:02.862Z,28.90
2022-09-12T15:22:44.721Z,28.90
2022-09-12T15:26:30.600Z,28.80
2022-09-12T15:30:13.614Z,28.70
2022-09-12T15:33:57.697Z,28.70
2022-09-12T15:37:39.452Z,28.50
2022-09-12T15:41:39.182Z,28.40
2022-09-12T15:45:25.534Z,28.20
2022-09-12T15:49:07.547Z,28.10
2022-09-12T15:52:49.460Z,28.00
2022-09-12T15:56:31.189Z,27.90
2022-09-12T16:00:14.426Z,27.90
2022-09-12T16:03:56.286Z,27.70
2022-09-12T16:07:37.967Z,27.50
2022-09-12T16:11:25.149Z,27.30
2022-09-12T16:15:07.171Z,27.20
2022-09-12T16:18:49.123Z,27.10
2022-09-12T16:22:30.950Z,27.00
2022-09-12T16:26:13.313Z,27.00
2022-09-12T16:29:55.037Z,26.90
2022-09-12T16:33:37.739Z,26.90
2022-09-12T16:37:19.462Z,26.70
2022-09-12T16:44:58.340Z,26.50
2022-09-12T16:48:52.105Z,26.40
2022-09-12T16:52:35.502Z,26.20
2022-09-12T16:56:17.619Z,26.10
2022-09-12T16:59:59.545Z,26.10
2022-09-12T17:03:42.027Z,26.00
2022-09-12T17:07:24.156Z,25.90
2022-09-12T17:36:54.683Z,25.10
2022-09-12T18:44:38.522Z,22.70
2022-09-12T18:48:20.505Z,22.60
2022-09-12T18:52:02.628Z,22.50
2022-09-12T18:55:44.366Z,22.40
2022-09-12T18:59:26.197Z,22.30
2022-09-12T19:03:07.993Z,22.30
2022-09-12T19:06:50.572Z,22.20
2022-09-12T19:10:32.849Z,22.20
2022-09-12T19:14:15.877Z,22.10
2022-09-12T19:17:57.603Z,22.10
2022-09-12T19:21:39.366Z,22.00
2022-09-12T19:25:21.057Z,22.00
2022-09-12T19:29:03.202Z,21.90
2022-09-12T19:32:44.931Z,21.90
2022-09-12T19:36:44.412Z,21.90
2022-09-12T19:40:28.029Z,21.90
2022-09-12T19:44:10.055Z,21.80
2022-09-12T19:47:51.788Z,21.80
2022-09-12T19:51:33.507Z,21.70
2022-09-12T19:55:15.361Z,21.70
2022-09-12T19:58:57.121Z,21.60
2022-09-12T20:02:39.003Z,21.50
2022-09-12T20:06:21.469Z,21.50
2022-09-12T20:10:03.370Z,21.50
2022-09-12T20:13:46.157Z,21.40
2022-09-12T20:17:28.084Z,21.40
2022-09-12T20:21:12.442Z,21.30
2022-09-12T20:24:54.137Z,21.30
2022-09-12T20:28:37.096Z,21.20
2022-09-12T20:32:20.197Z,21.20
2022-09-12T20:36:07.301Z,21.10
2022-09-12T20:39:50.882Z,21.10
2022-09-12T20:43:33.110Z,21.10
2022-09-12T20:47:14.883Z,21.10
2022-09-12T20:50:59.529Z,21.00
2022-09-12T20:54:41.397Z,20.90
2022-09-12T20:58:23.598Z,20.90
2022-09-12T21:02:05.473Z,20.80
2022-09-12T21:05:47.673Z,20.70
2022-09-12T21:09:29.596Z,20.60
2022-09-12T21:13:12.863Z,20.60
2022-09-12T21:16:54.701Z,20.40
2022-09-12T21:20:36.594Z,20.30
2022-09-12T21:24:18.569Z,20.30
2022-09-12T21:28:00.370Z,20.10
2022-09-12T21:31:43.180Z,20.10
2022-09-12T21:35:25.082Z,20.00
2022-09-12T21:39:06.872Z,19.90
2022-09-12T21:42:49.794Z,19.80
2022-09-12T21:46:31.597Z,19.80
2022-09-12T21:50:13.810Z,19.70
2022-09-12T21:53:55.562Z,19.70
2022-09-12T21:57:37.366Z,19.80
2022-09-12T22:01:19.132Z,19.80
2022-09-12T22:05:00.841Z,19.80
2022-09-12T22:08:43.005Z,19.90
2022-09-12T22:12:26.389Z,19.90
2022-09-12T22:16:08.289Z,19.90
2022-09-12T22:19:50.273Z,20.00
2022-09-12T22:23:50.708Z,20.00
2022-09-12T22:27:32.388Z,20.00
2022-09-12T22:31:14.934Z,20.00
2022-09-12T22:34:57.882Z,20.00
2022-09-12T22:38:40.213Z,20.00
2022-09-12T22:42:21.961Z,20.00
2022-09-12T22:46:09.241Z,19.90
2022-09-12T22:49:51.024Z,19.90
2022-09-12T22:53:33.337Z,19.90
2022-09-12T22:57:15.057Z,19.90
2022-09-12T23:00:56.861Z,19.90
2022-09-12T23:04:38.750Z,19.80
2022-09-12T23:08:20.501Z,19.80
2022-09-12T23:12:02.594Z,19.70
2022-09-12T23:15:44.272Z,19.70
2022-09-12T23:19:26.030Z,19.70
2022-09-12T23:23:07.774Z,19.70
2022-09-12T23:26:49.575Z,19.70
2022-09-12T23:30:31.992Z,19.70
2022-09-12T23:34:13.702Z,19.70
2022-09-12T23:37:55.636Z,19.70
2022-09-12T23:41:38.102Z,19.70
2022-09-12T23:45:19.806Z,19.60
2022-09-12T23:49:01.513Z,19.60
2022-09-12T23:52:43.202Z,19.50
2022-09-12T23:56:25.051Z,19.40
